sensor_id;sensor_type;location;lat;lon;timestamp;P1;durP1;ratioP1;P2;durP2;ratioP2
51838;SDS011;37886;53.174;6.368;2023-04-06T00:00:50;19.00;;;16.98;;
51838;SDS011;37886;53.174;6.368;2023-04-06T00:03:16;18.00;;;15.45;;
51838;SDS011;37886;53.174;6.368;2023-04-06T00:05:42;19.92;;;15.43;;
51838;SDS011;37886;53.174;6.368;2023-04-06T00:08:08;18.67;;;16.73;;
51838;SDS011;37886;53.174;6.368;2023-04-06T00:10:34;19.30;;;17.33;;
51838;SDS011;37886;53.174;6.368;2023-04-06T00:13:00;18.25;;;16.55;;
51838;SDS011;37886;53.174;6.368;2023-04-06T00:15:25;18.10;;;16.23;;
51838;SDS011;37886;53.174;6.368;2023-04-06T00:17:52;17.23;;;15.50;;
51838;SDS011;37886;53.174;6.368;2023-04-06T00:20:17;18.75;;;16.85;;
51838;SDS011;37886;53.174;6.368;2023-04-06T00:22:44;18.70;;;16.88;;
51838;SDS011;37886;53.174;6.368;2023-04-06T00:25:10;18.20;;;16.30;;
51838;SDS011;37886;53.174;6.368;2023-04-06T00:27:36;18.67;;;16.75;;
51838;SDS011;37886;53.174;6.368;2023-04-06T00:30:06;19.02;;;15.82;;
51838;SDS011;37886;53.174;6.368;2023-04-06T00:32:32;25.63;;;15.65;;
51838;SDS011;37886;53.174;6.368;2023-04-06T00:34:59;19.52;;;15.45;;
51838;SDS011;37886;53.174;6.368;2023-04-06T00:37:24;18.23;;;16.40;;
51838;SDS011;37886;53.174;6.368;2023-04-06T00:39:50;18.40;;;16.40;;
51838;SDS011;37886;53.174;6.368;2023-04-06T00:42:18;21.17;;;17.85;;
51838;SDS011;37886;53.174;6.368;2023-04-06T00:44:58;22.25;;;18.33;;
51838;SDS011;37886;53.174;6.368;2023-04-06T00:47:24;23.35;;;18.65;;
51838;SDS011;37886;53.174;6.368;2023-04-06T00:49:51;26.70;;;20.05;;
51838;SDS011;37886;53.174;6.368;2023-04-06T00:52:17;31.60;;;19.40;;
51838;SDS011;37886;53.174;6.368;2023-04-06T00:54:43;22.60;;;18.85;;
51838;SDS011;37886;53.174;6.368;2023-04-06T00:57:10;20.52;;;17.50;;
51838;SDS011;37886;53.174;6.368;2023-04-06T00:59:36;19.98;;;16.77;;
51838;SDS011;37886;53.174;6.368;2023-04-06T01:02:02;18.35;;;15.30;;
51838;SDS011;37886;53.174;6.368;2023-04-06T01:04:28;19.13;;;16.33;;
51838;SDS011;37886;53.174;6.368;2023-04-06T01:06:54;20.13;;;16.02;;
51838;SDS011;37886;53.174;6.368;2023-04-06T01:09:19;19.83;;;16.75;;
51838;SDS011;37886;53.174;6.368;2023-04-06T01:11:45;19.83;;;14.82;;
51838;SDS011;37886;53.174;6.368;2023-04-06T01:14:11;17.85;;;15.82;;
51838;SDS011;37886;53.174;6.368;2023-04-06T01:16:37;23.42;;;16.50;;
51838;SDS011;37886;53.174;6.368;2023-04-06T01:19:09;21.88;;;16.42;;
51838;SDS011;37886;53.174;6.368;2023-04-06T01:21:40;17.23;;;15.25;;
51838;SDS011;37886;53.174;6.368;2023-04-06T01:24:06;21.55;;;15.85;;
51838;SDS011;37886;53.174;6.368;2023-04-06T01:26:33;18.58;;;15.13;;
51838;SDS011;37886;53.174;6.368;2023-04-06T01:28:59;20.13;;;15.38;;
51838;SDS011;37886;53.174;6.368;2023-04-06T01:31:25;21.27;;;16.95;;
51838;SDS011;37886;53.174;6.368;2023-04-06T01:33:52;19.30;;;15.45;;
51838;SDS011;37886;53.174;6.368;2023-04-06T01:36:18;18.15;;;16.08;;
51838;SDS011;37886;53.174;6.368;2023-04-06T01:38:44;22.17;;;15.27;;
51838;SDS011;37886;53.174;6.368;2023-04-06T01:41:10;22.50;;;15.07;;
51838;SDS011;37886;53.174;6.368;2023-04-06T01:43:36;19.52;;;15.63;;
51838;SDS011;37886;53.174;6.368;2023-04-06T01:46:02;16.80;;;14.60;;
51838;SDS011;37886;53.174;6.368;2023-04-06T01:48:28;19.80;;;14.82;;
51838;SDS011;37886;53.174;6.368;2023-04-06T01:50:54;17.88;;;14.55;;
51838;SDS011;37886;53.174;6.368;2023-04-06T01:53:20;19.90;;;13.68;;
51838;SDS011;37886;53.174;6.368;2023-04-06T01:55:46;19.02;;;15.35;;
51838;SDS011;37886;53.174;6.368;2023-04-06T01:58:12;17.60;;;13.75;;
51838;SDS011;37886;53.174;6.368;2023-04-06T02:00:38;16.05;;;14.43;;
51838;SDS011;37886;53.174;6.368;2023-04-06T02:03:05;17.90;;;15.27;;
51838;SDS011;37886;53.174;6.368;2023-04-06T02:05:31;19.13;;;15.30;;
51838;SDS011;37886;53.174;6.368;2023-04-06T02:08:05;15.82;;;14.00;;
51838;SDS011;37886;53.174;6.368;2023-04-06T02:10:32;21.25;;;14.95;;
51838;SDS011;37886;53.174;6.368;2023-04-06T02:12:58;16.85;;;14.23;;
51838;SDS011;37886;53.174;6.368;2023-04-06T02:15:25;16.70;;;14.13;;
51838;SDS011;37886;53.174;6.368;2023-04-06T02:17:51;17.02;;;15.00;;
51838;SDS011;37886;53.174;6.368;2023-04-06T02:20:17;15.50;;;13.85;;
51838;SDS011;37886;53.174;6.368;2023-04-06T02:22:43;16.17;;;13.93;;
51838;SDS011;37886;53.174;6.368;2023-04-06T02:25:09;15.30;;;13.70;;
51838;SDS011;37886;53.174;6.368;2023-04-06T02:27:35;17.30;;;15.43;;
51838;SDS011;37886;53.174;6.368;2023-04-06T02:30:01;15.15;;;13.48;;
51838;SDS011;37886;53.174;6.368;2023-04-06T02:32:28;21.00;;;14.43;;
51838;SDS011;37886;53.174;6.368;2023-04-06T02:34:53;18.20;;;13.50;;
51838;SDS011;37886;53.174;6.368;2023-04-06T02:37:19;15.30;;;13.65;;
51838;SDS011;37886;53.174;6.368;2023-04-06T02:39:45;14.18;;;12.75;;
51838;SDS011;37886;53.174;6.368;2023-04-06T02:42:11;21.50;;;15.00;;
51838;SDS011;37886;53.174;6.368;2023-04-06T02:44:37;14.48;;;13.07;;
51838;SDS011;37886;53.174;6.368;2023-04-06T02:47:03;15.93;;;13.65;;
51838;SDS011;37886;53.174;6.368;2023-04-06T02:49:29;15.73;;;14.13;;
51838;SDS011;37886;53.174;6.368;2023-04-06T02:51:54;16.90;;;13.10;;
51838;SDS011;37886;53.174;6.368;2023-04-06T02:54:20;15.70;;;13.73;;
51838;SDS011;37886;53.174;6.368;2023-04-06T02:56:46;15.25;;;13.70;;
51838;SDS011;37886;53.174;6.368;2023-04-06T02:59:11;16.90;;;13.80;;
51838;SDS011;37886;53.174;6.368;2023-04-06T03:01:37;15.68;;;14.00;;
51838;SDS011;37886;53.174;6.368;2023-04-06T03:04:03;15.48;;;13.80;;
51838;SDS011;37886;53.174;6.368;2023-04-06T03:06:28;15.43;;;13.82;;
51838;SDS011;37886;53.174;6.368;2023-04-06T03:08:55;15.50;;;13.35;;
51838;SDS011;37886;53.174;6.368;2023-04-06T03:11:21;16.25;;;13.63;;
51838;SDS011;37886;53.174;6.368;2023-04-06T03:13:46;19.90;;;14.68;;
51838;SDS011;37886;53.174;6.368;2023-04-06T03:16:12;16.60;;;13.63;;
51838;SDS011;37886;53.174;6.368;2023-04-06T03:18:38;14.88;;;13.38;;
51838;SDS011;37886;53.174;6.368;2023-04-06T03:21:03;21.13;;;15.50;;
51838;SDS011;37886;53.174;6.368;2023-04-06T03:23:29;14.88;;;13.38;;
51838;SDS011;37886;53.174;6.368;2023-04-06T03:25:55;16.08;;;14.00;;
51838;SDS011;37886;53.174;6.368;2023-04-06T03:28:21;16.40;;;13.23;;
51838;SDS011;37886;53.174;6.368;2023-04-06T03:30:46;14.63;;;13.13;;
51838;SDS011;37886;53.174;6.368;2023-04-06T03:33:12;15.73;;;14.10;;
51838;SDS011;37886;53.174;6.368;2023-04-06T03:35:38;15.35;;;13.27;;
51838;SDS011;37886;53.174;6.368;2023-04-06T03:38:04;18.23;;;15.52;;
51838;SDS011;37886;53.174;6.368;2023-04-06T03:40:30;17.15;;;15.10;;
51838;SDS011;37886;53.174;6.368;2023-04-06T03:42:56;16.85;;;14.93;;
51838;SDS011;37886;53.174;6.368;2023-04-06T03:45:22;16.33;;;14.40;;
51838;SDS011;37886;53.174;6.368;2023-04-06T03:47:47;16.70;;;14.27;;
51838;SDS011;37886;53.174;6.368;2023-04-06T03:50:13;16.33;;;14.18;;
51838;SDS011;37886;53.174;6.368;2023-04-06T03:52:39;14.48;;;13.07;;
51838;SDS011;37886;53.174;6.368;2023-04-06T03:55:05;18.58;;;14.10;;
51838;SDS011;37886;53.174;6.368;2023-04-06T03:57:31;17.08;;;13.85;;
51838;SDS011;37886;53.174;6.368;2023-04-06T03:59:57;15.73;;;14.13;;
51838;SDS011;37886;53.174;6.368;2023-04-06T04:02:23;14.63;;;13.23;;
51838;SDS011;37886;53.174;6.368;2023-04-06T04:04:49;15.75;;;13.57;;
51838;SDS011;37886;53.174;6.368;2023-04-06T04:07:15;16.70;;;13.82;;
51838;SDS011;37886;53.174;6.368;2023-04-06T04:09:40;16.42;;;14.18;;
51838;SDS011;37886;53.174;6.368;2023-04-06T04:12:06;17.02;;;14.07;;
51838;SDS011;37886;53.174;6.368;2023-04-06T04:14:32;16.25;;;14.20;;
51838;SDS011;37886;53.174;6.368;2023-04-06T04:16:58;17.05;;;15.25;;
51838;SDS011;37886;53.174;6.368;2023-04-06T04:19:23;19.23;;;13.88;;
51838;SDS011;37886;53.174;6.368;2023-04-06T04:21:49;15.77;;;14.18;;
51838;SDS011;37886;53.174;6.368;2023-04-06T04:24:15;15.32;;;13.80;;
51838;SDS011;37886;53.174;6.368;2023-04-06T04:26:40;21.55;;;14.35;;
51838;SDS011;37886;53.174;6.368;2023-04-06T04:29:06;17.40;;;13.30;;
51838;SDS011;37886;53.174;6.368;2023-04-06T04:31:32;14.90;;;13.40;;
51838;SDS011;37886;53.174;6.368;2023-04-06T04:33:59;16.20;;;14.50;;
51838;SDS011;37886;53.174;6.368;2023-04-06T04:36:25;18.17;;;13.93;;
51838;SDS011;37886;53.174;6.368;2023-04-06T04:38:54;16.63;;;14.32;;
51838;SDS011;37886;53.174;6.368;2023-04-06T04:41:20;18.05;;;15.70;;
51838;SDS011;37886;53.174;6.368;2023-04-06T04:43:45;16.40;;;14.80;;
51838;SDS011;37886;53.174;6.368;2023-04-06T04:46:11;17.77;;;15.55;;
51838;SDS011;37886;53.174;6.368;2023-04-06T04:48:37;18.67;;;14.90;;
51838;SDS011;37886;53.174;6.368;2023-04-06T04:51:03;17.15;;;15.30;;
51838;SDS011;37886;53.174;6.368;2023-04-06T04:53:29;19.35;;;15.27;;
51838;SDS011;37886;53.174;6.368;2023-04-06T04:55:55;20.50;;;16.02;;
51838;SDS011;37886;53.174;6.368;2023-04-06T04:58:21;17.67;;;15.15;;
51838;SDS011;37886;53.174;6.368;2023-04-06T05:00:47;17.08;;;15.30;;
51838;SDS011;37886;53.174;6.368;2023-04-06T05:03:14;19.05;;;15.93;;
51838;SDS011;37886;53.174;6.368;2023-04-06T05:05:49;19.15;;;14.27;;
51838;SDS011;37886;53.174;6.368;2023-04-06T05:08:15;17.05;;;15.05;;
51838;SDS011;37886;53.174;6.368;2023-04-06T05:10:41;18.92;;;15.35;;
51838;SDS011;37886;53.174;6.368;2023-04-06T05:13:07;18.33;;;15.35;;
51838;SDS011;37886;53.174;6.368;2023-04-06T05:15:33;16.77;;;15.15;;
51838;SDS011;37886;53.174;6.368;2023-04-06T05:18:05;21.35;;;16.33;;
51838;SDS011;37886;53.174;6.368;2023-04-06T05:20:32;20.38;;;16.95;;
51838;SDS011;37886;53.174;6.368;2023-04-06T05:22:58;21.35;;;15.88;;
51838;SDS011;37886;53.174;6.368;2023-04-06T05:25:24;17.95;;;15.82;;
51838;SDS011;37886;53.174;6.368;2023-04-06T05:27:50;19.55;;;16.58;;
51838;SDS011;37886;53.174;6.368;2023-04-06T05:30:16;21.10;;;16.48;;
51838;SDS011;37886;53.174;6.368;2023-04-06T05:32:42;19.13;;;15.93;;
51838;SDS011;37886;53.174;6.368;2023-04-06T05:35:09;17.98;;;16.02;;
51838;SDS011;37886;53.174;6.368;2023-04-06T05:37:35;22.45;;;15.98;;
51838;SDS011;37886;53.174;6.368;2023-04-06T05:40:01;19.17;;;17.13;;
51838;SDS011;37886;53.174;6.368;2023-04-06T05:42:27;19.63;;;15.73;;
51838;SDS011;37886;53.174;6.368;2023-04-06T05:44:53;17.88;;;15.45;;
51838;SDS011;37886;53.174;6.368;2023-04-06T05:47:20;21.00;;;15.93;;
51838;SDS011;37886;53.174;6.368;2023-04-06T05:49:45;19.60;;;15.10;;
51838;SDS011;37886;53.174;6.368;2023-04-06T05:52:11;19.70;;;15.63;;
51838;SDS011;37886;53.174;6.368;2023-04-06T05:54:37;20.80;;;16.45;;
51838;SDS011;37886;53.174;6.368;2023-04-06T05:57:03;19.67;;;15.55;;
51838;SDS011;37886;53.174;6.368;2023-04-06T05:59:32;16.52;;;14.55;;
51838;SDS011;37886;53.174;6.368;2023-04-06T06:01:57;21.85;;;16.70;;
51838;SDS011;37886;53.174;6.368;2023-04-06T06:04:23;19.15;;;15.40;;
51838;SDS011;37886;53.174;6.368;2023-04-06T06:06:49;17.73;;;14.70;;
51838;SDS011;37886;53.174;6.368;2023-04-06T06:09:15;23.85;;;16.83;;
51838;SDS011;37886;53.174;6.368;2023-04-06T06:11:40;19.52;;;16.88;;
51838;SDS011;37886;53.174;6.368;2023-04-06T06:14:07;18.20;;;16.17;;
51838;SDS011;37886;53.174;6.368;2023-04-06T06:16:33;19.92;;;14.65;;
51838;SDS011;37886;53.174;6.368;2023-04-06T06:18:58;19.17;;;15.80;;
51838;SDS011;37886;53.174;6.368;2023-04-06T06:21:24;21.35;;;16.58;;
51838;SDS011;37886;53.174;6.368;2023-04-06T06:23:50;23.08;;;16.30;;
51838;SDS011;37886;53.174;6.368;2023-04-06T06:26:16;18.60;;;16.17;;
51838;SDS011;37886;53.174;6.368;2023-04-06T06:28:42;21.08;;;16.02;;
51838;SDS011;37886;53.174;6.368;2023-04-06T06:31:08;19.15;;;15.90;;
51838;SDS011;37886;53.174;6.368;2023-04-06T06:33:33;18.55;;;15.52;;
51838;SDS011;37886;53.174;6.368;2023-04-06T06:35:59;21.92;;;15.57;;
51838;SDS011;37886;53.174;6.368;2023-04-06T06:38:25;22.50;;;14.75;;
51838;SDS011;37886;53.174;6.368;2023-04-06T06:40:51;25.30;;;15.38;;
51838;SDS011;37886;53.174;6.368;2023-04-06T06:43:17;18.45;;;15.02;;
51838;SDS011;37886;53.174;6.368;2023-04-06T06:45:43;17.05;;;15.25;;
51838;SDS011;37886;53.174;6.368;2023-04-06T06:48:09;18.42;;;16.05;;
51838;SDS011;37886;53.174;6.368;2023-04-06T06:50:36;19.70;;;14.63;;
51838;SDS011;37886;53.174;6.368;2023-04-06T06:53:01;23.02;;;17.98;;
51838;SDS011;37886;53.174;6.368;2023-04-06T06:55:27;19.95;;;15.55;;
51838;SDS011;37886;53.174;6.368;2023-04-06T06:57:53;20.88;;;16.08;;
51838;SDS011;37886;53.174;6.368;2023-04-06T07:00:19;21.80;;;16.25;;
51838;SDS011;37886;53.174;6.368;2023-04-06T07:02:47;19.10;;;16.58;;
51838;SDS011;37886;53.174;6.368;2023-04-06T07:05:14;23.17;;;16.38;;
51838;SDS011;37886;53.174;6.368;2023-04-06T07:07:40;22.30;;;17.98;;
51838;SDS011;37886;53.174;6.368;2023-04-06T07:10:07;21.48;;;16.30;;
51838;SDS011;37886;53.174;6.368;2023-04-06T07:12:33;19.40;;;15.90;;
51838;SDS011;37886;53.174;6.368;2023-04-06T07:14:59;17.90;;;14.63;;
51838;SDS011;37886;53.174;6.368;2023-04-06T07:17:25;19.77;;;16.20;;
51838;SDS011;37886;53.174;6.368;2023-04-06T07:19:51;19.55;;;15.65;;
51838;SDS011;37886;53.174;6.368;2023-04-06T07:22:17;18.45;;;15.57;;
51838;SDS011;37886;53.174;6.368;2023-04-06T07:24:42;17.80;;;14.65;;
51838;SDS011;37886;53.174;6.368;2023-04-06T07:27:08;17.75;;;14.25;;
51838;SDS011;37886;53.174;6.368;2023-04-06T07:29:34;18.55;;;15.38;;
51838;SDS011;37886;53.174;6.368;2023-04-06T07:32:00;20.42;;;15.43;;
51838;SDS011;37886;53.174;6.368;2023-04-06T07:34:25;20.23;;;15.52;;
51838;SDS011;37886;53.174;6.368;2023-04-06T07:36:51;16.88;;;15.18;;
51838;SDS011;37886;53.174;6.368;2023-04-06T07:39:19;19.40;;;16.25;;
51838;SDS011;37886;53.174;6.368;2023-04-06T07:41:45;20.55;;;15.57;;
51838;SDS011;37886;53.174;6.368;2023-04-06T07:44:11;18.13;;;16.17;;
51838;SDS011;37886;53.174;6.368;2023-04-06T07:46:36;23.63;;;16.05;;
51838;SDS011;37886;53.174;6.368;2023-04-06T07:49:02;21.10;;;16.70;;
51838;SDS011;37886;53.174;6.368;2023-04-06T07:51:28;18.73;;;15.45;;
51838;SDS011;37886;53.174;6.368;2023-04-06T07:53:54;20.48;;;15.13;;
51838;SDS011;37886;53.174;6.368;2023-04-06T07:56:20;18.83;;;16.30;;
51838;SDS011;37886;53.174;6.368;2023-04-06T07:58:46;18.73;;;15.82;;
51838;SDS011;37886;53.174;6.368;2023-04-06T08:01:12;18.17;;;14.77;;
51838;SDS011;37886;53.174;6.368;2023-04-06T08:03:38;21.17;;;16.33;;
51838;SDS011;37886;53.174;6.368;2023-04-06T08:06:04;19.98;;;15.50;;
51838;SDS011;37886;53.174;6.368;2023-04-06T08:08:30;17.13;;;15.32;;
51838;SDS011;37886;53.174;6.368;2023-04-06T08:10:56;18.65;;;14.77;;
51838;SDS011;37886;53.174;6.368;2023-04-06T08:13:22;18.60;;;15.90;;
51838;SDS011;37886;53.174;6.368;2023-04-06T08:15:47;16.38;;;14.73;;
51838;SDS011;37886;53.174;6.368;2023-04-06T08:18:13;18.45;;;15.30;;
51838;SDS011;37886;53.174;6.368;2023-04-06T08:20:39;19.80;;;15.75;;
51838;SDS011;37886;53.174;6.368;2023-04-06T08:23:05;20.60;;;16.77;;
51838;SDS011;37886;53.174;6.368;2023-04-06T08:25:33;18.42;;;15.77;;
51838;SDS011;37886;53.174;6.368;2023-04-06T08:28:00;21.65;;;16.00;;
51838;SDS011;37886;53.174;6.368;2023-04-06T08:30:26;18.75;;;15.93;;
51838;SDS011;37886;53.174;6.368;2023-04-06T08:32:52;17.30;;;14.90;;
51838;SDS011;37886;53.174;6.368;2023-04-06T08:35:18;20.98;;;15.35;;
51838;SDS011;37886;53.174;6.368;2023-04-06T08:37:44;19.58;;;16.35;;
51838;SDS011;37886;53.174;6.368;2023-04-06T08:40:10;20.50;;;15.82;;
51838;SDS011;37886;53.174;6.368;2023-04-06T08:42:39;18.10;;;15.98;;
51838;SDS011;37886;53.174;6.368;2023-04-06T08:45:09;18.52;;;15.63;;
51838;SDS011;37886;53.174;6.368;2023-04-06T08:47:38;19.50;;;14.73;;
51838;SDS011;37886;53.174;6.368;2023-04-06T08:50:05;17.35;;;15.40;;
51838;SDS011;37886;53.174;6.368;2023-04-06T08:52:32;20.27;;;15.57;;
51838;SDS011;37886;53.174;6.368;2023-04-06T08:54:59;21.33;;;17.27;;
51838;SDS011;37886;53.174;6.368;2023-04-06T08:57:25;16.45;;;14.57;;
51838;SDS011;37886;53.174;6.368;2023-04-06T08:59:51;22.58;;;17.35;;
51838;SDS011;37886;53.174;6.368;2023-04-06T09:02:18;20.00;;;17.65;;
51838;SDS011;37886;53.174;6.368;2023-04-06T09:04:47;19.00;;;16.50;;
51838;SDS011;37886;53.174;6.368;2023-04-06T09:07:14;19.67;;;17.63;;
51838;SDS011;37886;53.174;6.368;2023-04-06T09:09:40;20.20;;;17.73;;
51838;SDS011;37886;53.174;6.368;2023-04-06T09:12:21;21.73;;;17.38;;
51838;SDS011;37886;53.174;6.368;2023-04-06T09:14:52;20.90;;;18.38;;
51838;SDS011;37886;53.174;6.368;2023-04-06T09:17:21;21.75;;;17.20;;
51838;SDS011;37886;53.174;6.368;2023-04-06T09:19:55;19.85;;;17.27;;
51838;SDS011;37886;53.174;6.368;2023-04-06T09:22:21;20.65;;;18.50;;
51838;SDS011;37886;53.174;6.368;2023-04-06T09:24:48;24.55;;;19.60;;
51838;SDS011;37886;53.174;6.368;2023-04-06T09:27:15;22.85;;;19.35;;
51838;SDS011;37886;53.174;6.368;2023-04-06T09:29:41;19.52;;;17.05;;
51838;SDS011;37886;53.174;6.368;2023-04-06T09:32:08;24.20;;;17.48;;
51838;SDS011;37886;53.174;6.368;2023-04-06T09:34:41;21.50;;;18.55;;
51838;SDS011;37886;53.174;6.368;2023-04-06T09:37:17;23.10;;;19.98;;
51838;SDS011;37886;53.174;6.368;2023-04-06T09:39:44;26.33;;;21.23;;
51838;SDS011;37886;53.174;6.368;2023-04-06T09:42:23;29.83;;;22.65;;
51838;SDS011;37886;53.174;6.368;2023-04-06T09:44:50;33.53;;;21.40;;
51838;SDS011;37886;53.174;6.368;2023-04-06T09:47:16;26.90;;;21.33;;
51838;SDS011;37886;53.174;6.368;2023-04-06T09:49:43;30.00;;;21.55;;
51838;SDS011;37886;53.174;6.368;2023-04-06T09:52:11;25.52;;;22.38;;
51838;SDS011;37886;53.174;6.368;2023-04-06T09:54:37;27.05;;;21.85;;
51838;SDS011;37886;53.174;6.368;2023-04-06T10:08:15;31.27;;;23.13;;
51838;SDS011;37886;53.174;6.368;2023-04-06T10:10:42;33.75;;;25.50;;
51838;SDS011;37886;53.174;6.368;2023-04-06T10:13:09;34.67;;;25.20;;
51838;SDS011;37886;53.174;6.368;2023-04-06T10:15:36;37.13;;;25.20;;
51838;SDS011;37886;53.174;6.368;2023-04-06T10:18:03;33.78;;;24.83;;
51838;SDS011;37886;53.174;6.368;2023-04-06T10:20:33;31.15;;;25.70;;
51838;SDS011;37886;53.174;6.368;2023-04-06T10:23:09;34.67;;;25.17;;
51838;SDS011;37886;53.174;6.368;2023-04-06T10:25:35;32.17;;;25.80;;
51838;SDS011;37886;53.174;6.368;2023-04-06T10:28:04;30.38;;;24.50;;
51838;SDS011;37886;53.174;6.368;2023-04-06T10:30:31;33.72;;;26.80;;
51838;SDS011;37886;53.174;6.368;2023-04-06T10:33:16;33.03;;;26.13;;
51838;SDS011;37886;53.174;6.368;2023-04-06T10:35:43;35.75;;;27.13;;
51838;SDS011;37886;53.174;6.368;2023-04-06T10:38:09;33.50;;;25.23;;
51838;SDS011;37886;53.174;6.368;2023-04-06T10:40:35;32.90;;;26.35;;
51838;SDS011;37886;53.174;6.368;2023-04-06T10:43:07;33.20;;;25.73;;
51838;SDS011;37886;53.174;6.368;2023-04-06T10:45:36;32.72;;;25.45;;
51838;SDS011;37886;53.174;6.368;2023-04-06T10:48:15;37.38;;;29.27;;
51838;SDS011;37886;53.174;6.368;2023-04-06T10:50:47;35.70;;;27.90;;
51838;SDS011;37886;53.174;6.368;2023-04-06T10:53:26;39.08;;;30.10;;
51838;SDS011;37886;53.174;6.368;2023-04-06T10:55:54;42.33;;;32.10;;
51838;SDS011;37886;53.174;6.368;2023-04-06T10:58:24;41.45;;;30.17;;
51838;SDS011;37886;53.174;6.368;2023-04-06T11:00:53;41.92;;;33.30;;
51838;SDS011;37886;53.174;6.368;2023-04-06T11:03:19;43.45;;;33.38;;
51838;SDS011;37886;53.174;6.368;2023-04-06T11:05:46;41.78;;;32.75;;
51838;SDS011;37886;53.174;6.368;2023-04-06T11:08:24;47.95;;;37.47;;
51838;SDS011;37886;53.174;6.368;2023-04-06T11:10:51;46.30;;;35.40;;
51838;SDS011;37886;53.174;6.368;2023-04-06T11:13:17;45.60;;;36.92;;
51838;SDS011;37886;53.174;6.368;2023-04-06T11:15:42;40.40;;;30.25;;
51838;SDS011;37886;53.174;6.368;2023-04-06T11:18:08;42.08;;;34.00;;
51838;SDS011;37886;53.174;6.368;2023-04-06T11:20:36;43.78;;;35.10;;
51838;SDS011;37886;53.174;6.368;2023-04-06T11:23:01;39.90;;;32.03;;
51838;SDS011;37886;53.174;6.368;2023-04-06T11:25:28;42.53;;;33.60;;
51838;SDS011;37886;53.174;6.368;2023-04-06T11:27:56;44.42;;;36.85;;
51838;SDS011;37886;53.174;6.368;2023-04-06T11:30:22;45.53;;;36.17;;
51838;SDS011;37886;53.174;6.368;2023-04-06T11:32:48;46.88;;;37.45;;
51838;SDS011;37886;53.174;6.368;2023-04-06T11:35:23;43.97;;;33.78;;
51838;SDS011;37886;53.174;6.368;2023-04-06T11:37:49;47.78;;;34.08;;
51838;SDS011;37886;53.174;6.368;2023-04-06T11:40:15;46.53;;;35.13;;
51838;SDS011;37886;53.174;6.368;2023-04-06T11:42:51;43.67;;;34.03;;
51838;SDS011;37886;53.174;6.368;2023-04-06T11:45:18;46.92;;;36.03;;
51838;SDS011;37886;53.174;6.368;2023-04-06T11:47:44;43.28;;;33.97;;
51838;SDS011;37886;53.174;6.368;2023-04-06T11:50:11;39.10;;;33.03;;
51838;SDS011;37886;53.174;6.368;2023-04-06T11:52:38;40.13;;;32.78;;
51838;SDS011;37886;53.174;6.368;2023-04-06T11:55:11;43.92;;;33.13;;
51838;SDS011;37886;53.174;6.368;2023-04-06T11:57:42;46.25;;;34.65;;
51838;SDS011;37886;53.174;6.368;2023-04-06T12:00:09;42.53;;;33.63;;
51838;SDS011;37886;53.174;6.368;2023-04-06T12:02:36;41.42;;;32.83;;
51838;SDS011;37886;53.174;6.368;2023-04-06T12:05:03;39.40;;;33.08;;
51838;SDS011;37886;53.174;6.368;2023-04-06T12:07:30;39.80;;;31.42;;
51838;SDS011;37886;53.174;6.368;2023-04-06T12:09:56;42.55;;;33.83;;
51838;SDS011;37886;53.174;6.368;2023-04-06T12:12:23;43.83;;;33.08;;
51838;SDS011;37886;53.174;6.368;2023-04-06T12:14:48;42.10;;;32.45;;
51838;SDS011;37886;53.174;6.368;2023-04-06T12:17:14;43.65;;;33.70;;
51838;SDS011;37886;53.174;6.368;2023-04-06T12:19:40;43.20;;;32.20;;
51838;SDS011;37886;53.174;6.368;2023-04-06T12:22:06;42.20;;;33.28;;
51838;SDS011;37886;53.174;6.368;2023-04-06T12:24:31;46.58;;;33.65;;
51838;SDS011;37886;53.174;6.368;2023-04-06T12:26:57;46.88;;;34.25;;
51838;SDS011;37886;53.174;6.368;2023-04-06T12:29:24;43.70;;;35.17;;
51838;SDS011;37886;53.174;6.368;2023-04-06T12:31:49;45.25;;;33.50;;
51838;SDS011;37886;53.174;6.368;2023-04-06T12:34:16;42.10;;;33.78;;
51838;SDS011;37886;53.174;6.368;2023-04-06T12:36:41;40.03;;;31.60;;
51838;SDS011;37886;53.174;6.368;2023-04-06T12:39:07;41.00;;;31.63;;
51838;SDS011;37886;53.174;6.368;2023-04-06T12:41:33;40.08;;;32.83;;
51838;SDS011;37886;53.174;6.368;2023-04-06T12:43:59;45.40;;;33.53;;
51838;SDS011;37886;53.174;6.368;2023-04-06T12:46:25;39.72;;;30.83;;
51838;SDS011;37886;53.174;6.368;2023-04-06T12:48:51;42.92;;;32.22;;
51838;SDS011;37886;53.174;6.368;2023-04-06T12:51:21;45.37;;;33.23;;
51838;SDS011;37886;53.174;6.368;2023-04-06T12:53:47;43.88;;;33.92;;
51838;SDS011;37886;53.174;6.368;2023-04-06T12:56:13;45.88;;;34.38;;
51838;SDS011;37886;53.174;6.368;2023-04-06T12:58:40;46.97;;;34.92;;
51838;SDS011;37886;53.174;6.368;2023-04-06T13:01:07;41.65;;;33.80;;
51838;SDS011;37886;53.174;6.368;2023-04-06T13:03:33;51.33;;;35.50;;
51838;SDS011;37886;53.174;6.368;2023-04-06T13:06:00;41.00;;;34.25;;
51838;SDS011;37886;53.174;6.368;2023-04-06T13:08:28;43.85;;;31.40;;
51838;SDS011;37886;53.174;6.368;2023-04-06T13:10:54;35.22;;;30.13;;
51838;SDS011;37886;53.174;6.368;2023-04-06T13:13:23;36.25;;;30.10;;
51838;SDS011;37886;53.174;6.368;2023-04-06T13:15:54;31.35;;;27.38;;
51838;SDS011;37886;53.174;6.368;2023-04-06T13:18:20;32.33;;;26.90;;
51838;SDS011;37886;53.174;6.368;2023-04-06T13:20:48;30.50;;;25.52;;
51838;SDS011;37886;53.174;6.368;2023-04-06T13:23:14;23.17;;;20.60;;
51838;SDS011;37886;53.174;6.368;2023-04-06T13:25:40;27.70;;;24.73;;
51838;SDS011;37886;53.174;6.368;2023-04-06T13:28:06;26.95;;;22.60;;
51838;SDS011;37886;53.174;6.368;2023-04-06T13:30:32;26.60;;;22.75;;
51838;SDS011;37886;53.174;6.368;2023-04-06T13:32:58;22.67;;;18.63;;
51838;SDS011;37886;53.174;6.368;2023-04-06T13:35:23;22.40;;;16.13;;
51838;SDS011;37886;53.174;6.368;2023-04-06T13:37:49;19.20;;;17.40;;
51838;SDS011;37886;53.174;6.368;2023-04-06T13:40:17;19.48;;;16.98;;
51838;SDS011;37886;53.174;6.368;2023-04-06T13:42:43;20.13;;;18.13;;
51838;SDS011;37886;53.174;6.368;2023-04-06T13:45:10;20.65;;;18.38;;
51838;SDS011;37886;53.174;6.368;2023-04-06T13:47:36;22.17;;;19.90;;
51838;SDS011;37886;53.174;6.368;2023-04-06T13:50:02;21.27;;;18.45;;
51838;SDS011;37886;53.174;6.368;2023-04-06T13:52:29;21.13;;;18.33;;
51838;SDS011;37886;53.174;6.368;2023-04-06T13:54:55;21.52;;;19.33;;
51838;SDS011;37886;53.174;6.368;2023-04-06T13:57:21;23.33;;;20.55;;
51838;SDS011;37886;53.174;6.368;2023-04-06T13:59:47;22.33;;;19.70;;
51838;SDS011;37886;53.174;6.368;2023-04-06T14:02:14;24.40;;;20.83;;
51838;SDS011;37886;53.174;6.368;2023-04-06T14:04:40;23.42;;;20.73;;
51838;SDS011;37886;53.174;6.368;2023-04-06T14:07:06;23.27;;;19.85;;
51838;SDS011;37886;53.174;6.368;2023-04-06T14:09:32;22.52;;;20.13;;
51838;SDS011;37886;53.174;6.368;2023-04-06T14:11:58;23.15;;;20.80;;
51838;SDS011;37886;53.174;6.368;2023-04-06T14:14:24;20.80;;;18.60;;
51838;SDS011;37886;53.174;6.368;2023-04-06T14:16:51;20.85;;;18.75;;
51838;SDS011;37886;53.174;6.368;2023-04-06T14:19:17;23.63;;;21.15;;
51838;SDS011;37886;53.174;6.368;2023-04-06T14:21:46;25.80;;;23.42;;
51838;SDS011;37886;53.174;6.368;2023-04-06T14:24:14;22.88;;;20.25;;
51838;SDS011;37886;53.174;6.368;2023-04-06T14:26:40;29.30;;;23.17;;
51838;SDS011;37886;53.174;6.368;2023-04-06T14:29:09;24.67;;;21.25;;